Time;durP1;ratioP1;P1;durP2;ratioP2;P2;SDS_P1;SDS_P2;PMS_P1;PMS_P2;Temp;Humidity;BMP_temperature;BMP_pressure;BME280_temperature;BME280_humidity;BME280_pressure;Samples;Min_cycle;Max_cycle;Signal;HPM_P1;HPM_P2
2022/08/25 03:36:32;;;;;;;;;;;;;;;13.72;100.00;99639.97;6306849;22;20380;-86
2022/08/25 03:38:57;;;;;;;;;;;;;;;13.53;100.00;99641.03;6307044;22;19919;-84
2022/08/25 03:41:27;;;;;;;;;;;;;;;13.69;100.00;99642.81;6280030;22;19979;-87
2022/08/25 03:43:52;;;;;;;;;;;;;;;13.63;100.00;99626.25;6307151;22;19990;-84
2022/08/25 03:46:22;;;;;;;;;;;;;;;13.52;100.00;99626.00;6306968;22;19992;-85
2022/08/25 03:48:57;;;;;;;;;;;;;;;13.72;100.00;99621.31;6305813;22;19922;-87
2022/08/25 03:51:25;;;;;;;;;;;;;;;13.55;100.00;99614.34;6279868;22;19958;-89
2022/08/25 03:53:57;;;;;;;;;;;;;;;13.74;100.00;99622.13;6307332;22;19911;-90
2022/08/25 03:56:25;;;;;;;;;;;;;;;13.66;100.00;99619.00;6279555;22;20338;-87
2022/08/25 03:58:51;;;;;;;;;;;;;;;13.53;100.00;99617.09;6306947;22;19915;-88
2022/08/25 04:01:16;;;;;;;;;;;;;;;13.72;100.00;99629.31;6306852;22;20353;-87
2022/08/25 04:03:44;;;;;;;;;;;;;;;13.53;100.00;99625.06;6305388;22;20346;-88
2022/08/25 04:06:13;;;;;;;;;;;;;;;13.70;100.00;99632.06;6306610;22;19915;-87
2022/08/25 04:08:38;;;;;;;;;;;;;;;13.63;100.00;99634.22;6307244;22;19915;-88
2022/08/25 04:11:05;;;;;;;;;;;;;;;13.49;100.00;99626.19;6307282;22;19915;-88
2022/08/25 04:13:34;;;;;;;;;;;;;;;13.73;100.00;99623.06;6306787;22;20254;-87
2022/08/25 04:16:00;;;;;;;;;;;;;;;13.55;100.00;99622.31;6279420;22;19914;-87
2022/08/25 04:18:25;;;;;;;;;;;;;;;13.66;100.00;99625.22;6305048;22;19914;-85
2022/08/25 04:21:00;;;;;;;;;;;;;;;13.60;100.00;99621.09;6306624;22;20315;-86
2022/08/25 04:23:25;;;;;;;;;;;;;;;13.49;100.00;99623.53;6306692;22;19914;-85
2022/08/25 04:25:50;;;;;;;;;;;;;;;13.77;100.00;99633.44;6279824;22;20283;-85
2022/08/25 04:28:16;;;;;;;;;;;;;;;13.52;100.00;99631.34;6306497;22;20281;-87
2022/08/25 04:30:44;;;;;;;;;;;;;;;13.63;100.00;99620.06;6279278;22;20283;-87
2022/08/25 04:33:09;;;;;;;;;;;;;;;13.65;100.00;99617.31;6304903;22;19956;-87
2022/08/25 08:01:24;;;;;;;;;;;;;;;13.84;100.00;99558.50;6276126;22;19953;-87
2022/08/25 08:03:50;;;;;;;;;;;;;;;13.79;100.00;99548.13;6279923;22;19914;-89
2022/08/25 08:06:17;;;;;;;;;;;;;;;14.41;100.00;99537.25;6307225;22;19915;-88
2022/08/25 08:08:44;;;;;;;;;;;;;;;13.82;100.00;99545.28;6306776;22;20033;-87
2022/08/25 08:11:30;;;;;;;;;;;;;;;14.08;100.00;99530.38;6279531;22;19930;-92
2022/08/25 08:13:56;;;;;;;;;;;;;;;17.17;100.00;99528.38;6305375;22;19961;-86
2022/08/25 08:16:24;;;;;;;;;;;;;;;17.32;100.00;99523.69;6306767;22;19911;-86
2022/08/25 08:18:50;;;;;;;;;;;;;;;18.30;100.00;99528.66;6306770;22;19914;-85
2022/08/25 08:21:42;;;;;;;;;;;;;;;17.74;100.00;99524.03;6306703;22;19911;-91
2022/08/25 08:25:04;;;;;;;;;;;;;;;;;;;;;
2022/08/25 08:27:49;;;;;;;;;;;;;;;16.88;100.00;99526.84;6150483;23;19923;-88
2022/08/25 08:30:26;;;;;;;;;;;;;;;16.14;100.00;99520.53;6127404;23;19917;-89
2022/08/25 08:32:57;;;;;;;;;;;;;;;16.07;100.00;99525.47;6248998;22;19960;-89
2022/08/25 08:35:23;;;;;;;;;;;;;;;15.75;100.00;99523.19;6279389;22;19911;-88
2022/08/25 08:38:20;;;;;;;;;;;;;;;15.53;100.00;99526.44;6279073;22;20307;-88
2022/08/25 08:42:15;;;;;;;;;;;;;;;15.61;100.00;99526.78;6279769;22;19911;-88
2022/08/25 08:43:55;;;;;;;;;;;;;;;15.64;100.00;99533.75;6304445;22;19965;-88
2022/08/25 08:46:21;;;;;;;;;;;;;;;15.49;100.00;99526.75;6278871;22;19919;-87
2022/08/25 08:49:22;;;;;;;;;;;;;;;;;;;;;
2022/08/25 08:51:53;;;;;;;;;;;;;;;16.22;100.00;99522.69;6306447;22;19997;-84
2022/08/25 08:54:23;;;;;;;;;;;;;;;16.25;100.00;99531.34;6306293;22;19914;-87
2022/08/25 08:56:54;;;;;;;;;;;;;;;15.76;100.00;99532.94;6306631;22;19907;-87
2022/08/25 08:59:25;;;;;;;;;;;;;;;15.88;100.00;99525.88;6304929;22;19911;-88
2022/08/25 09:05:23;;;;;;;;;;;;;;;15.58;100.00;99523.47;6306702;22;20377;-87
2022/08/25 09:07:55;;;;;;;;;;;;;;;15.79;100.00;99521.19;6224009;22;19981;-87
2022/08/25 09:10:24;;;;;;;;;;;;;;;15.61;100.00;99528.59;6306364;22;19961;-87
2022/08/25 09:12:53;;;;;;;;;;;;;;;15.67;100.00;99530.88;6277691;22;19910;-86
2022/08/25 09:18:53;;;;;;;;;;;;;;;;;;;;;
2022/08/25 09:21:38;;;;;;;;;;;;;;;15.51;100.00;99532.84;6306679;22;20249;-87
2022/08/25 09:24:26;;;;;;;;;;;;;;;15.75;100.00;99533.00;6279113;22;19915;-86
2022/08/25 09:30:20;;;;;;;;;;;;;;;15.56;100.00;99520.06;6223758;22;19911;-87
2022/08/25 09:33:00;;;;;;;;;;;;;;;;;;;;;
2022/08/25 09:35:33;;;;;;;;;;;;;;;15.67;100.00;99512.16;6282619;22;20377;-87
2022/08/25 09:38:21;;;;;;;;;;;;;;;15.57;100.00;99508.41;6278833;22;20319;-88
2022/08/25 09:40:59;;;;;;;;;;;;;;;15.79;100.00;99521.19;6271957;22;19955;-87
2022/08/25 09:43:40;;;;;;;;;;;;;;;15.70;100.00;99511.09;6245116;22;19923;-87
2022/08/25 09:46:22;;;;;;;;;;;;;;;;;;;;;
2022/08/25 09:49:02;;;;;;;;;;;;;;;15.79;100.00;99511.38;6274084;22;20410;-87
2022/08/25 09:52:00;;;;;;;;;;;;;;;;;;;;;
2022/08/25 09:54:55;;;;;;;;;;;;;;;;;;;;;
2022/08/25 10:01:11;;;;;;;;;;;;;;;;;;;;;
2022/08/25 10:03:28;;;;;;;;;;;;;;;15.55;100.00;99480.97;6232753;23;19922;-87
2022/08/25 10:06:57;;;;;;;;;;;;;;;15.80;100.00;99475.66;6248123;22;19934;-87
2022/08/25 10:09:34;;;;;;;;;;;;;;;15.79;100.00;99481.09;6180893;23;20395;-88
2022/08/25 10:12:41;;;;;;;;;;;;;;;15.67;100.00;99480.13;6207801;22;19924;-87
2022/08/25 10:15:26;;;;;;;;;;;;;;;15.58;100.00;99472.72;6093937;23;20342;-87
2022/08/25 10:18:03;;;;;;;;;;;;;;;;;;;;;
2022/08/25 10:26:26;;;;;;;;;;;;;;;15.85;100.00;99466.50;6094773;23;20369;-87
2022/08/25 10:29:35;;;;;;;;;;;;;;;15.69;100.00;99467.50;6092651;23;20273;-89
2022/08/25 10:41:47;;;;;;;;;;;;;;;15.77;100.00;99451.84;6125253;23;19917;-88
2022/08/25 10:47:32;;;;;;;;;;;;;;;;;;;;;
2022/08/25 10:50:28;;;;;;;;;;;;;;;;;;;;;
2022/08/25 11:03:07;;;;;;;;;;;;;;;;;;;;;
2022/08/25 11:06:04;;;;;;;;;;;;;;;;;;;;;
2022/08/25 11:17:51;;;;;;;;;;;;;;;15.62;100.00;99400.31;6064943;23;19918;-88
2022/08/25 11:24:14;;;;;;;;;;;;;;;;;;;;;
2022/08/25 11:26:52;;;;;;;;;;;;;;;15.76;100.00;99380.69;6008223;23;19985;-87
2022/08/25 11:29:51;;;;;;;;;;;;;;;15.72;100.00;99376.50;6006222;23;19914;-87
2022/08/25 11:37:53;;;;;;;;;;;;;;;15.67;100.00;99373.28;6288634;22;19919;-87
2022/08/25 11:41:01;;;;;;;;;;;;;;;15.94;100.00;99369.66;6279714;22;19911;-89
2022/08/25 11:50:02;;;;;;;;;;;;;;;15.92;100.00;99363.56;6122702;23;19948;-88
2022/08/25 11:59:30;;;;;;;;;;;;;;;;;;;;;
2022/08/25 12:02:22;;;;;;;;;;;;;;;15.92;100.00;99355.53;6303772;22;20318;-87
2022/08/25 12:04:55;;;;;;;;;;;;;;;15.96;100.00;99357.03;6276002;22;20258;-87
2022/08/25 12:07:24;;;;;;;;;;;;;;;15.74;100.00;99357.69;6306705;22;20334;-87
2022/08/25 12:10:05;;;;;;;;;;;;;;;;;;;;;
2022/08/25 12:13:06;;;;;;;;;;;;;;;;;;;;;
2022/08/25 12:16:01;;;;;;;;;;;;;;;15.77;100.00;99350.34;6272401;22;20009;-87
2022/08/25 12:18:26;;;;;;;;;;;;;;;15.87;100.00;99352.34;6279059;22;19918;-87
2022/08/25 12:24:12;;;;;;;;;;;;;;;15.82;100.00;99342.00;6288187;22;19915;-87
2022/08/25 12:26:47;;;;;;;;;;;;;;;17.87;100.00;99347.09;6279518;22;19997;-83
2022/08/25 12:29:31;;;;;;;;;;;;;;;16.64;100.00;99330.66;6304966;22;19914;-87
2022/08/25 12:32:24;;;;;;;;;;;;;;;16.03;100.00;99334.25;6279531;22;19918;-86
2022/08/25 12:35:21;;;;;;;;;;;;;;;15.89;100.00;99339.72;6306583;22;19942;-87
2022/08/25 12:37:58;;;;;;;;;;;;;;;16.09;100.00;99327.59;6306623;22;19960;-86
2022/08/25 12:40:56;;;;;;;;;;;;;;;15.90;100.00;99330.75;6306503;22;19914;-86
2022/08/25 12:43:48;;;;;;;;;;;;;;;15.76;100.00;99335.28;6277827;22;20281;-87
2022/08/25 12:46:24;;;;;;;;;;;;;;;16.07;100.00;99330.41;6306910;22;19984;-86
2022/08/25 12:49:15;;;;;;;;;;;;;;;;;;;;;
2022/08/25 12:51:53;;;;;;;;;;;;;;;15.74;100.00;99331.81;6306586;22;20018;-86
2022/08/25 12:54:34;;;;;;;;;;;;;;;;;;;;;
2022/08/25 12:57:30;;;;;;;;;;;;;;;;;;;;;
2022/08/25 13:00:10;;;;;;;;;;;;;;;;;;;;;
2022/08/25 13:02:58;;;;;;;;;;;;;;;;;;;;;
2022/08/25 13:05:48;;;;;;;;;;;;;;;;;;;;;
2022/08/25 13:08:28;;;;;;;;;;;;;;;15.77;100.00;99307.59;6306581;22;19998;-85
2022/08/25 13:11:05;;;;;;;;;;;;;;;16.05;100.00;99307.41;6306424;22;20375;-85
2022/08/25 13:19:50;;;;;;;;;;;;;;;16.11;100.00;99299.78;6306914;22;20354;-86
2022/08/25 13:22:35;;;;;;;;;;;;;;;15.95;100.00;99297.38;6279624;22;20235;-86
2022/08/25 13:25:24;;;;;;;;;;;;;;;15.79;100.00;99292.34;6308802;22;20324;-88
2022/08/25 13:28:32;;;;;;;;;;;;;;;16.11;100.00;99286.44;6222884;22;20265;-87
2022/08/25 13:31:27;;;;;;;;;;;;;;;;;;;;;
2022/08/25 13:40:08;;;;;;;;;;;;;;;16.11;100.00;99281.09;6307549;22;20241;-87
2022/08/25 13:42:54;;;;;;;;;;;;;;;15.91;100.00;99269.22;6279054;22;19968;-87
2022/08/25 13:45:44;;;;;;;;;;;;;;;16.08;100.00;99277.78;6308327;22;19907;-88
2022/08/25 13:48:11;;;;;;;;;;;;;;;16.04;100.00;99269.16;6227074;22;19915;-85
2022/08/25 13:50:44;;;;;;;;;;;;;;;15.84;100.00;99272.44;6243520;23;19912;-86
2022/08/25 13:53:21;;;;;;;;;;;;;;;16.12;100.00;99280.13;6243603;23;19912;-85
2022/08/25 13:55:53;;;;;;;;;;;;;;;15.94;100.00;99268.13;6243716;23;19916;-86
2022/08/25 13:58:27;;;;;;;;;;;;;;;15.81;100.00;99276.16;6242169;23;19912;-86
2022/08/25 14:01:24;;;;;;;;;;;;;;;16.04;100.00;99271.84;6243710;23;19961;-86
2022/08/25 14:03:52;;;;;;;;;;;;;;;15.91;100.00;99268.38;6219761;23;19997;-86
2022/08/25 14:06:22;;;;;;;;;;;;;;;15.93;100.00;99269.09;6243663;23;19911;-86
2022/08/25 14:09:04;;;;;;;;;;;;;;;16.01;100.00;99269.38;6243414;23;19916;-86
2022/08/25 14:11:41;;;;;;;;;;;;;;;;;;;;;
2022/08/25 14:14:29;;;;;;;;;;;;;;;16.09;100.00;99258.13;6306769;22;19997;-86
2022/08/25 14:17:29;;;;;;;;;;;;;;;15.99;100.00;99244.59;6307465;22;19960;-87
2022/08/25 14:20:08;;;;;;;;;;;;;;;;;;;;;
2022/08/25 14:22:43;;;;;;;;;;;;;;;15.99;100.00;99252.63;6308193;22;19990;-87
2022/08/25 14:25:16;;;;;;;;;;;;;;;16.04;100.00;99245.09;6280727;22;20230;-86
2022/08/25 14:27:44;;;;;;;;;;;;;;;15.90;100.00;99243.44;6304532;22;19917;-85
2022/08/25 14:30:13;;;;;;;;;;;;;;;16.12;100.00;99240.03;6307800;22;19989;-85
2022/08/25 14:32:44;;;;;;;;;;;;;;;15.97;100.00;99242.03;6280223;22;19915;-87
2022/08/25 14:35:17;;;;;;;;;;;;;;;15.91;100.00;99239.81;6307232;22;19980;-86
2022/08/25 14:37:45;;;;;;;;;;;;;;;16.07;100.00;99238.69;6280245;22;19947;-86
2022/08/25 14:40:15;;;;;;;;;;;;;;;15.88;100.00;99237.38;6280833;22;19915;-85
2022/08/25 14:42:48;;;;;;;;;;;;;;;16.17;100.00;99237.88;6278870;22;19994;-87
2022/08/25 14:45:20;;;;;;;;;;;;;;;15.96;100.00;99234.97;6280540;22;19911;-86
2022/08/25 14:47:48;;;;;;;;;;;;;;;16.00;100.00;99235.59;6307561;22;19922;-86
2022/08/25 14:50:16;;;;;;;;;;;;;;;16.10;100.00;99241.16;6307628;22;19915;-85
2022/08/25 14:52:49;;;;;;;;;;;;;;;15.88;100.00;99242.72;6307498;22;20309;-85
2022/08/25 14:55:53;;;;;;;;;;;;;;;;;;;;;
2022/08/25 14:58:31;;;;;;;;;;;;;;;16.09;100.00;99245.63;6305780;22;19996;-85
2022/08/25 15:01:07;;;;;;;;;;;;;;;;;;;;;
2022/08/25 15:03:42;;;;;;;;;;;;;;;16.20;100.00;99235.97;6306634;22;19993;-85
2022/08/25 15:06:09;;;;;;;;;;;;;;;16.07;100.00;99236.88;6306945;22;19922;-85
2022/08/25 15:11:24;;;;;;;;;;;;;;;16.14;100.00;99227.41;6306497;22;19972;-85
2022/08/25 15:13:52;;;;;;;;;;;;;;;15.96;100.00;99220.78;6302292;22;19961;-85
2022/08/25 15:16:27;;;;;;;;;;;;;;;16.17;100.00;99221.00;6279417;22;20006;-86
2022/08/25 15:18:55;;;;;;;;;;;;;;;15.99;100.00;99223.22;6306969;22;19964;-85
2022/08/25 15:21:22;;;;;;;;;;;;;;;16.05;100.00;99227.25;6306453;22;19945;-85
2022/08/25 15:23:48;;;;;;;;;;;;;;;16.13;100.00;99227.53;6306012;22;19922;-85
2022/08/25 15:26:16;;;;;;;;;;;;;;;15.95;100.00;99227.91;6306591;22;19919;-85
2022/08/25 15:28:53;;;;;;;;;;;;;;;;;;;;;
2022/08/25 15:31:29;;;;;;;;;;;;;;;;;;;;;
2022/08/25 15:33:55;;;;;;;;;;;;;;;16.27;100.00;99226.50;6307473;22;19982;-87
2022/08/25 15:36:22;;;;;;;;;;;;;;;16.34;100.00;99223.25;6306547;22;20277;-87
2022/08/25 15:38:55;;;;;;;;;;;;;;;15.53;100.00;99218.56;6280397;22;19918;-89
2022/08/25 15:41:21;;;;;;;;;;;;;;;15.50;100.00;99221.44;6307317;22;19922;-85
2022/08/25 15:43:54;;;;;;;;;;;;;;;15.17;100.00;99221.09;6276835;22;19915;-88
2022/08/25 15:46:24;;;;;;;;;;;;;;;15.18;100.00;99212.09;6306844;22;19915;-84
2022/08/25 15:48:59;;;;;;;;;;;;;;;;;;;;;
2022/08/25 15:51:28;;;;;;;;;;;;;;;14.93;100.00;99223.66;6306587;22;20393;-85
2022/08/25 15:53:57;;;;;;;;;;;;;;;15.18;100.00;99221.94;6278516;22;19919;-89
2022/08/25 15:56:31;;;;;;;;;;;;;;;15.02;100.00;99216.81;6307593;22;19942;-88
2022/08/25 15:58:59;;;;;;;;;;;;;;;15.11;100.00;99223.31;6271806;22;20279;-87
2022/08/25 16:01:26;;;;;;;;;;;;;;;15.12;100.00;99217.03;6273323;22;20152;-85
2022/08/25 16:03:54;;;;;;;;;;;;;;;15.01;100.00;99218.66;6272331;22;19957;-88
2022/08/25 16:06:20;;;;;;;;;;;;;;;15.28;100.00;99214.97;6271462;22;19939;-88
2022/08/25 16:08:45;;;;;;;;;;;;;;;15.13;100.00;99210.75;6272985;22;19969;-88
2022/08/25 16:11:20;;;;;;;;;;;;;;;15.44;100.00;99217.38;6273498;22;20323;-89
2022/08/25 16:13:46;;;;;;;;;;;;;;;15.37;100.00;99216.13;6269877;22;19918;-89
2022/08/25 16:16:12;;;;;;;;;;;;;;;15.36;100.00;99217.94;6272230;22;20322;-85
2022/08/25 16:18:42;;;;;;;;;;;;;;;15.46;100.00;99215.47;6272681;22;19915;-89
2022/08/25 16:21:08;;;;;;;;;;;;;;;15.34;100.00;99217.19;6272882;22;19919;-87
2022/08/25 16:23:36;;;;;;;;;;;;;;;15.60;100.00;99211.78;6273184;22;20246;-89
2022/08/25 16:26:29;;;;;;;;;;;;;;;15.40;100.00;99211.44;6273349;22;19903;-86
2022/08/25 16:28:52;;;;;;;;;;;;;;;15.59;100.00;99205.63;6269965;22;20334;-85
2022/08/25 16:31:27;;;;;;;;;;;;;;;;;;;;;
2022/08/25 16:33:53;;;;;;;;;;;;;;;15.44;100.00;99207.59;6306432;22;20018;-84
2022/08/25 16:36:24;;;;;;;;;;;;;;;15.72;100.00;99202.91;6306736;22;20346;-85
2022/08/25 16:38:51;;;;;;;;;;;;;;;15.58;100.00;99195.03;6305925;22;19972;-86
2022/08/25 16:41:32;;;;;;;;;;;;;;;;;;;;;
2022/08/25 16:43:58;;;;;;;;;;;;;;;15.73;100.00;99203.75;6306148;22;19990;-84
2022/08/25 16:46:23;;;;;;;;;;;;;;;15.62;100.00;99204.53;6307021;22;20456;-84
2022/08/25 16:48:52;;;;;;;;;;;;;;;15.79;100.00;99198.84;6305243;22;19911;-86
2022/08/25 16:51:18;;;;;;;;;;;;;;;15.55;100.00;99201.44;6304677;22;19911;-86
2022/08/25 16:56:28;;;;;;;;;;;;;;;15.73;100.00;99201.94;6303543;22;19971;-85
2022/08/25 16:58:55;;;;;;;;;;;;;;;15.73;100.00;99199.28;6251343;22;20372;-85
2022/08/25 17:01:23;;;;;;;;;;;;;;;15.85;100.00;99204.69;6252887;22;19913;-87
2022/08/25 17:03:54;;;;;;;;;;;;;;;15.64;100.00;99199.94;6252126;22;19917;-84
2022/08/25 17:06:19;;;;;;;;;;;;;;;15.89;100.00;99195.47;6150306;23;19923;-88
2022/08/25 17:08:48;;;;;;;;;;;;;;;15.71;100.00;99193.16;6150772;22;19912;-90
2022/08/25 17:11:16;;;;;;;;;;;;;;;15.97;100.00;99193.06;6253025;22;19966;-91
2022/08/25 17:13:44;;;;;;;;;;;;;;;15.84;100.00;99181.63;6149229;23;19913;-89
2022/08/25 17:16:20;;;;;;;;;;;;;;;;;;;;;
2022/08/25 17:18:49;;;;;;;;;;;;;;;16.11;100.00;99190.22;6150599;23;19999;-87
2022/08/25 17:21:47;;;;;;;;;;;;;;;;;;;;;
2022/08/25 17:27:13;;;;;;;;;;;;;;;15.94;100.00;99183.50;6165486;22;19917;-89
2022/08/25 17:32:47;;;;;;;;;;;;;;;15.97;100.00;99187.72;6181677;23;20386;-87
2022/08/25 17:35:20;;;;;;;;;;;;;;;15.87;100.00;99192.06;6179988;23;19919;-88
2022/08/25 17:38:18;;;;;;;;;;;;;;;;;;;;;
2022/08/25 17:41:16;;;;;;;;;;;;;;;;;;;;;
2022/08/25 17:44:30;;;;;;;;;;;;;;;15.86;100.00;99193.03;6168290;23;20003;-87
2022/08/25 17:47:17;;;;;;;;;;;;;;;15.68;100.00;99193.38;6111709;23;19917;-87
2022/08/25 17:49:51;;;;;;;;;;;;;;;15.75;100.00;99193.81;6159012;22;19934;-86
2022/08/25 17:52:39;;;;;;;;;;;;;;;15.83;100.00;99196.78;6150279;23;20404;-90
2022/08/25 17:55:25;;;;;;;;;;;;;;;;;;;;;
2022/08/25 17:58:06;;;;;;;;;;;;;;;;;;;;;
2022/08/25 18:00:44;;;;;;;;;;;;;;;15.85;100.00;99200.19;6293181;22;20029;-85
2022/08/25 18:03:34;;;;;;;;;;;;;;;15.71;100.00;99201.19;6306459;22;19965;-87
2022/08/25 18:11:46;;;;;;;;;;;;;;;15.76;100.00;99204.41;6291540;22;19921;-84
2022/08/25 18:20:26;;;;;;;;;;;;;;;15.82;100.00;99197.75;6307987;22;19937;-87
2022/08/25 18:23:07;;;;;;;;;;;;;;;;;;;;;
2022/08/25 18:25:38;;;;;;;;;;;;;;;15.92;100.00;99208.59;6308373;22;20006;-88
2022/08/25 18:28:20;;;;;;;;;;;;;;;;;;;;;
2022/08/25 18:31:10;;;;;;;;;;;;;;;15.57;100.00;99206.66;6308093;22;20001;-87
2022/08/25 18:33:59;;;;;;;;;;;;;;;;;;;;;
2022/08/25 18:36:57;;;;;;;;;;;;;;;;;;;;;
2022/08/25 18:42:26;;;;;;;;;;;;;;;;;;;;;
2022/08/25 18:48:27;;;;;;;;;;;;;;;;;;;;;
2022/08/25 18:50:55;;;;;;;;;;;;;;;15.55;100.00;99213.94;6176162;23;20376;-87
2022/08/25 18:53:58;;;;;;;;;;;;;;;;;;;;;
2022/08/25 18:56:38;;;;;;;;;;;;;;;;;;;;;
2022/08/25 18:59:24;;;;;;;;;;;;;;;15.58;100.00;99224.41;6250773;22;20002;-87
2022/08/25 19:05:26;;;;;;;;;;;;;;;;;;;;;
2022/08/25 19:08:40;;;;;;;;;;;;;;;;;;;;;
2022/08/25 19:20:48;;;;;;;;;;;;;;;;;;;;;
2022/08/25 19:29:37;;;;;;;;;;;;;;;15.87;100.00;99256.19;5967961;24;19957;-88
2022/08/25 19:32:42;;;;;;;;;;;;;;;;;;;;;
2022/08/25 19:38:46;;;;;;;;;;;;;;;;;;;;;
2022/08/25 19:50:42;;;;;;;;;;;;;;;;;;;;;
2022/08/25 19:53:34;;;;;;;;;;;;;;;15.86;100.00;99265.16;6036377;23;19996;-88
2022/08/25 19:56:40;;;;;;;;;;;;;;;15.62;100.00;99265.97;6129185;23;19940;-88
2022/08/25 19:59:31;;;;;;;;;;;;;;;;;;;;;
2022/08/25 20:02:30;;;;;;;;;;;;;;;;;;;;;
2022/08/25 20:04:58;;;;;;;;;;;;;;;15.77;100.00;99272.88;6093951;23;20389;-88
2022/08/25 20:10:24;;;;;;;;;;;;;;;15.88;100.00;99268.59;6093541;23;19917;-87
2022/08/25 20:13:01;;;;;;;;;;;;;;;16.11;100.00;99265.06;6092174;23;20326;-86
2022/08/25 20:15:56;;;;;;;;;;;;;;;;;;;;;
2022/08/25 20:18:45;;;;;;;;;;;;;;;16.22;100.00;99266.09;6182190;23;19995;-88
2022/08/25 20:21:42;;;;;;;;;;;;;;;;;;;;;
2022/08/25 20:36:28;;;;;;;;;;;;;;;;;;;;;
2022/08/25 20:42:04;;;;;;;;;;;;;;;16.52;100.00;99281.66;6254868;22;19911;-86
2022/08/25 20:45:02;;;;;;;;;;;;;;;;;;;;;
2022/08/25 20:47:28;;;;;;;;;;;;;;;16.49;100.00;99281.88;6306760;22;19984;-94
2022/08/25 20:50:07;;;;;;;;;;;;;;;;;;;;;
2022/08/25 20:52:37;;;;;;;;;;;;;;;16.34;100.00;99282.06;6306645;22;20010;-87
2022/08/25 20:55:49;;;;;;;;;;;;;;;16.62;100.00;99279.13;6280722;22;20193;-87
2022/08/25 20:58:46;;;;;;;;;;;;;;;16.37;100.00;99280.13;6277674;22;19915;-89
2022/08/25 21:01:36;;;;;;;;;;;;;;;;;;;;;
2022/08/25 21:04:12;;;;;;;;;;;;;;;;;;;;;
2022/08/25 21:06:49;;;;;;;;;;;;;;;16.60;100.00;99289.09;6306829;22;19986;-88
2022/08/25 21:09:36;;;;;;;;;;;;;;;;;;;;;
2022/08/25 21:12:33;;;;;;;;;;;;;;;16.51;100.00;99291.50;6306539;22;19985;-87
2022/08/25 21:15:19;;;;;;;;;;;;;;;16.75;100.00;99295.09;6306561;22;19906;-87
2022/08/25 21:18:14;;;;;;;;;;;;;;;;;;;;;
2022/08/25 21:23:32;;;;;;;;;;;;;;;16.41;100.00;99293.16;6211217;23;19912;-87
2022/08/25 21:26:18;;;;;;;;;;;;;;;16.67;100.00;99287.66;6211520;23;19994;-87
2022/08/25 21:29:02;;;;;;;;;;;;;;;;;;;;;
2022/08/25 21:34:55;;;;;;;;;;;;;;;16.82;100.00;99293.66;6168603;23;19912;-88
2022/08/25 21:37:26;;;;;;;;;;;;;;;16.63;100.00;99299.56;6156967;23;20276;-90
2022/08/25 21:40:04;;;;;;;;;;;;;;;;;;;;;
2022/08/25 21:42:49;;;;;;;;;;;;;;;16.49;100.00;99304.09;6251027;22;19990;-88
2022/08/25 21:45:56;;;;;;;;;;;;;;;16.81;100.00;99299.97;6308316;22;19946;-87
2022/08/25 21:48:25;;;;;;;;;;;;;;;16.53;100.00;99302.94;6307110;22;19918;-87
2022/08/25 21:51:20;;;;;;;;;;;;;;;;;;;;;
2022/08/25 21:54:22;;;;;;;;;;;;;;;;;;;;;
2022/08/25 22:00:32;;;;;;;;;;;;;;;16.69;100.00;99307.13;6174685;22;19969;-86
2022/08/25 22:03:04;;;;;;;;;;;;;;;;;;;;;
2022/08/25 22:05:37;;;;;;;;;;;;;;;16.79;100.00;99300.09;6308193;22;20606;-87
2022/08/25 22:08:32;;;;;;;;;;;;;;;;;;;;;
2022/08/25 22:11:18;;;;;;;;;;;;;;;16.84;100.00;99295.22;6308557;22;20013;-87
2022/08/25 22:14:08;;;;;;;;;;;;;;;16.61;100.00;99296.13;6279160;22;20207;-86
2022/08/25 22:19:31;;;;;;;;;;;;;;;16.62;100.00;99297.84;6285578;22;20302;-86
2022/08/25 22:22:07;;;;;;;;;;;;;;;16.84;100.00;99295.22;6279630;22;20021;-86
2022/08/25 22:24:45;;;;;;;;;;;;;;;;;;;;;
2022/08/25 22:27:25;;;;;;;;;;;;;;;16.81;100.00;99292.78;6228897;22;19982;-87
2022/08/25 22:32:59;;;;;;;;;;;;;;;;;;;;;
2022/08/25 22:35:57;;;;;;;;;;;;;;;;;;;;;
2022/08/25 22:41:28;;;;;;;;;;;;;;;;;;;;;
2022/08/25 22:44:20;;;;;;;;;;;;;;;;;;;;;
2022/08/25 22:49:38;;;;;;;;;;;;;;;16.73;100.00;99300.56;6280800;22;20248;-87
2022/08/25 22:52:34;;;;;;;;;;;;;;;;;;;;;
2022/08/25 22:55:37;;;;;;;;;;;;;;;16.70;100.00;99295.44;6152652;23;20003;-88
2022/08/25 22:58:09;;;;;;;;;;;;;;;;;;;;;
2022/08/25 23:01:13;;;;;;;;;;;;;;;;;;;;;
2022/08/25 23:07:26;;;;;;;;;;;;;;;;;;;;;
2022/08/25 23:10:25;;;;;;;;;;;;;;;;;;;;;
2022/08/25 23:13:02;;;;;;;;;;;;;;;;;;;;;
2022/08/25 23:15:55;;;;;;;;;;;;;;;16.93;100.00;99299.06;6306561;22;20381;-87
2022/08/25 23:18:57;;;;;;;;;;;;;;;16.72;100.00;99306.91;6264976;22;20211;-88
2022/08/25 23:24:27;;;;;;;;;;;;;;;16.74;100.00;99293.38;6307475;22;19918;-89
2022/08/25 23:26:53;;;;;;;;;;;;;;;16.95;100.00;99296.28;6307153;22;19972;-89
2022/08/25 23:29:40;;;;;;;;;;;;;;;16.68;100.00;99294.72;6304494;22;20319;-88
2022/08/25 23:32:27;;;;;;;;;;;;;;;16.98;100.00;99296.88;6280171;22;19918;-88
2022/08/25 23:35:13;;;;;;;;;;;;;;;16.66;100.00;99302.84;6307210;22;19911;-87
2022/08/25 23:40:39;;;;;;;;;;;;;;;;;;;;;
2022/08/25 23:43:16;;;;;;;;;;;;;;;16.94;100.00;99287.38;6305566;22;19994;-87
2022/08/25 23:49:14;;;;;;;;;;;;;;;;;;;;;
